createdAt,value
2022-12-19T00:01:38.893Z,56.13
2022-12-19T00:04:09.130Z,57.23
2022-12-19T00:06:37.780Z,51.03
2022-12-19T00:09:05.392Z,51.40
2022-12-19T00:11:33.205Z,55.43
2022-12-19T00:14:00.815Z,50.17
2022-12-19T00:16:29.164Z,48.37
2022-12-19T00:18:58.761Z,51.50
2022-12-19T00:21:30.814Z,50.93
2022-12-19T00:24:01.598Z,51.63
2022-12-19T00:26:31.275Z,51.33
2022-12-19T00:29:00.072Z,54.33
2022-12-19T00:31:30.834Z,51.57
2022-12-19T00:33:58.327Z,51.00
2022-12-19T00:36:27.641Z,49.37
2022-12-19T00:38:56.287Z,50.67
2022-12-19T00:41:25.514Z,49.77
2022-12-19T00:43:57.255Z,49.53
2022-12-19T00:46:24.967Z,48.33
2022-12-19T00:48:52.354Z,47.00
2022-12-19T00:51:22.284Z,45.63
2022-12-19T00:53:50.358Z,47.63
2022-12-19T00:56:21.913Z,46.37
2022-12-19T00:58:49.767Z,47.90
2022-12-19T01:01:47.416Z,48.50
2022-12-19T01:04:28.153Z,44.63
2022-12-19T01:07:01.110Z,44.77
2022-12-19T01:09:32.638Z,42.67
2022-12-19T01:12:18.597Z,44.57
2022-12-19T01:14:46.192Z,43.40
2022-12-19T01:17:13.593Z,43.00
2022-12-19T01:19:44.359Z,44.00
2022-12-19T01:22:13.236Z,41.83
2022-12-19T01:24:40.774Z,42.47
2022-12-19T01:27:08.417Z,43.20
2022-12-19T01:29:39.966Z,42.37
2022-12-19T01:32:20.982Z,41.93
2022-12-19T01:34:48.708Z,41.67
2022-12-19T01:37:17.394Z,43.60
2022-12-19T01:39:44.955Z,45.60
2022-12-19T01:42:21.153Z,44.97
2022-12-19T01:45:12.164Z,45.30
2022-12-19T01:48:00.502Z,44.07
2022-12-19T01:50:56.038Z,44.37
2022-12-19T01:53:59.115Z,38.47
2022-12-19T01:56:29.290Z,39.47
2022-12-19T01:59:05.955Z,41.53
2022-12-19T02:01:40.035Z,39.87
2022-12-19T02:04:22.051Z,40.30
2022-12-19T02:06:49.440Z,43.00
2022-12-19T02:09:16.798Z,44.23
2022-12-19T02:11:44.489Z,42.37
2022-12-19T02:14:12.238Z,42.40
2022-12-19T02:17:15.169Z,45.50
2022-12-19T02:20:10.972Z,41.63
2022-12-19T02:22:48.012Z,45.05
2022-12-19T02:25:40.561Z,44.20
2022-12-19T02:28:53.133Z,46.23
2022-12-19T02:31:35.135Z,44.87
2022-12-19T02:34:29.794Z,44.13
2022-12-19T02:37:03.600Z,42.70
2022-12-19T02:39:50.966Z,46.37
2022-12-19T02:42:23.431Z,47.25
2022-12-19T02:44:53.058Z,46.40
2022-12-19T02:47:21.348Z,45.77
2022-12-19T02:49:48.715Z,42.07
2022-12-19T02:52:19.392Z,44.97
2022-12-19T02:54:58.027Z,42.43
2022-12-19T02:57:28.484Z,45.70
2022-12-19T03:00:13.441Z,46.07
2022-12-19T03:03:11.765Z,45.83
2022-12-19T03:06:11.403Z,44.87
2022-12-19T03:08:43.121Z,41.57
2022-12-19T03:11:13.332Z,44.97
2022-12-19T03:13:49.714Z,42.37
2022-12-19T03:16:17.425Z,42.17
2022-12-19T03:18:44.759Z,44.63
2022-12-19T03:21:32.305Z,44.33
2022-12-19T03:23:59.913Z,40.93
2022-12-19T03:26:33.961Z,41.67
2022-12-19T03:29:05.913Z,45.43
2022-12-19T03:31:33.498Z,40.90
2022-12-19T03:34:10.622Z,43.00
2022-12-19T03:36:45.235Z,42.33
2022-12-19T03:39:12.932Z,39.90
2022-12-19T03:41:59.392Z,43.20
2022-12-19T03:44:27.754Z,38.90
2022-12-19T03:46:58.999Z,41.13
2022-12-19T03:49:26.847Z,40.90
2022-12-19T03:52:05.884Z,40.27
2022-12-19T03:54:36.609Z,40.60
2022-12-19T03:57:21.262Z,44.67
2022-12-19T03:59:54.646Z,37.47
2022-12-19T04:02:22.190Z,38.70
2022-12-19T04:05:00.857Z,41.43
2022-12-19T04:07:28.321Z,39.57
2022-12-19T04:09:56.155Z,42.93
2022-12-19T04:12:28.862Z,41.97
2022-12-19T04:14:56.451Z,43.10
2022-12-19T04:17:39.397Z,39.63
2022-12-19T04:20:17.798Z,41.10
2022-12-19T04:22:52.912Z,42.50
2022-12-19T04:25:29.204Z,40.77
2022-12-19T04:27:59.547Z,39.72
2022-12-19T04:30:27.699Z,40.30
2022-12-19T04:32:55.078Z,38.30
2022-12-19T04:35:22.430Z,39.47
2022-12-19T04:37:50.004Z,42.37
2022-12-19T04:40:17.396Z,38.60
2022-12-19T04:42:45.207Z,41.83
2022-12-19T04:45:12.828Z,40.77
2022-12-19T04:47:40.458Z,39.50
2022-12-19T04:50:08.097Z,37.93
2022-12-19T04:52:35.744Z,41.33
2022-12-19T04:55:03.079Z,37.50
2022-12-19T04:57:30.880Z,38.50
2022-12-19T04:59:58.481Z,41.90
2022-12-19T05:02:26.483Z,40.17
2022-12-19T05:04:55.081Z,40.00
2022-12-19T05:07:22.766Z,40.57
2022-12-19T05:09:50.089Z,40.70
2022-12-19T05:12:17.459Z,40.73
2022-12-19T05:14:45.094Z,39.63
2022-12-19T05:17:12.453Z,37.63
2022-12-19T05:19:39.788Z,35.20
2022-12-19T05:22:07.452Z,40.20
2022-12-19T05:24:34.819Z,40.67
2022-12-19T05:27:02.217Z,39.17
2022-12-19T05:29:29.984Z,38.37
2022-12-19T05:31:57.743Z,38.97
2022-12-19T05:34:26.431Z,39.10
2022-12-19T05:36:54.028Z,38.87
2022-12-19T05:39:21.337Z,37.73
2022-12-19T05:41:49.296Z,36.77
2022-12-19T05:44:17.263Z,38.70
2022-12-19T05:46:45.143Z,40.50
2022-12-19T05:49:12.569Z,38.47
2022-12-19T05:51:40.623Z,38.10
2022-12-19T05:54:07.961Z,37.20
2022-12-19T05:56:35.399Z,37.73
2022-12-19T05:59:03.038Z,38.47
2022-12-19T06:01:30.653Z,39.60
2022-12-19T06:03:58.310Z,42.80
2022-12-19T06:06:26.307Z,39.67
2022-12-19T06:08:57.166Z,42.50
2022-12-19T06:11:24.872Z,40.23
2022-12-19T06:13:52.266Z,40.83
2022-12-19T06:16:21.140Z,42.43
2022-12-19T06:18:48.800Z,38.97
2022-12-19T06:21:17.881Z,40.67
2022-12-19T06:23:45.254Z,44.07
2022-12-19T06:26:18.740Z,43.20
2022-12-19T06:28:50.417Z,44.17
2022-12-19T06:31:18.709Z,46.50
2022-12-19T06:33:46.218Z,45.40
2022-12-19T06:36:21.693Z,45.20
2022-12-19T06:38:49.507Z,41.97
2022-12-19T06:41:35.814Z,42.73
2022-12-19T06:44:05.111Z,43.20
2022-12-19T06:46:32.770Z,46.00
2022-12-19T06:49:00.217Z,48.50
2022-12-19T06:51:28.189Z,46.37
2022-12-19T06:53:58.729Z,47.33
2022-12-19T06:56:26.327Z,48.53
2022-12-19T06:58:54.047Z,42.73
2022-12-19T07:01:52.712Z,47.93
2022-12-19T07:04:40.953Z,47.43
2022-12-19T07:07:08.362Z,45.67
2022-12-19T07:09:36.143Z,47.50
2022-12-19T07:12:06.285Z,45.53
2022-12-19T07:14:33.802Z,43.70
2022-12-19T07:17:01.424Z,49.97
2022-12-19T07:19:28.821Z,47.73
2022-12-19T07:21:56.174Z,43.00
2022-12-19T07:24:23.781Z,43.93
2022-12-19T07:26:51.233Z,44.73
2022-12-19T07:29:18.801Z,44.87
2022-12-19T07:31:46.443Z,47.27
2022-12-19T07:34:13.877Z,44.23
2022-12-19T07:36:41.260Z,42.57
2022-12-19T07:39:08.886Z,48.27
2022-12-19T07:41:37.524Z,45.93
2022-12-19T07:44:06.180Z,46.30
2022-12-19T07:46:34.063Z,40.33
2022-12-19T07:49:01.870Z,41.67
2022-12-19T07:51:29.347Z,40.43
2022-12-19T07:53:56.987Z,40.20
2022-12-19T07:56:24.370Z,37.10
2022-12-19T07:58:52.356Z,37.77
2022-12-19T08:01:20.451Z,38.70
2022-12-19T08:03:48.126Z,37.53
2022-12-19T08:06:15.479Z,37.83
2022-12-19T08:08:42.842Z,36.30
2022-12-19T08:11:17.532Z,36.73
2022-12-19T08:13:46.874Z,37.00
2022-12-19T08:16:15.091Z,38.47
2022-12-19T08:18:42.566Z,38.37
2022-12-19T08:21:10.361Z,33.67
2022-12-19T08:23:38.845Z,32.87
2022-12-19T08:26:11.368Z,30.37
2022-12-19T08:28:39.015Z,29.93
2022-12-19T08:31:07.715Z,26.10
2022-12-19T08:33:35.852Z,25.00
2022-12-19T08:36:08.377Z,22.43
2022-12-19T08:38:36.250Z,20.10
2022-12-19T08:41:04.248Z,21.57
2022-12-19T08:43:31.984Z,21.23
2022-12-19T08:45:59.403Z,23.10
2022-12-19T08:48:27.194Z,21.63
2022-12-19T08:50:56.837Z,23.87
2022-12-19T08:53:26.672Z,22.70
2022-12-19T08:56:07.992Z,23.80
2022-12-19T08:58:35.376Z,23.10
2022-12-19T09:01:09.084Z,22.87
2022-12-19T09:03:50.224Z,21.60
2022-12-19T09:06:24.340Z,22.40
2022-12-19T09:08:51.831Z,23.20
2022-12-19T09:11:21.149Z,22.27
2022-12-19T09:13:49.026Z,23.80
2022-12-19T09:16:18.821Z,23.37
2022-12-19T09:18:48.796Z,24.60
2022-12-19T09:21:20.660Z,21.83
2022-12-19T09:23:49.737Z,24.13
2022-12-19T09:26:17.658Z,24.53
2022-12-19T09:28:45.852Z,24.10
2022-12-19T09:31:18.061Z,23.07
2022-12-19T09:33:46.711Z,22.13
2022-12-19T09:36:15.624Z,25.13
2022-12-19T09:38:43.265Z,23.33
2022-12-19T09:41:13.607Z,23.60
2022-12-19T09:44:05.379Z,23.63
2022-12-19T09:46:42.599Z,23.60
2022-12-19T09:49:13.180Z,22.90
2022-12-19T09:51:46.003Z,24.50
2022-12-19T09:54:19.023Z,23.70
2022-12-19T09:56:46.941Z,27.53
2022-12-19T09:59:20.156Z,24.00
2022-12-19T10:01:56.305Z,21.65
2022-12-19T10:04:24.796Z,24.33
2022-12-19T10:07:18.228Z,23.87
2022-12-19T10:11:54.812Z,23.43
2022-12-19T10:12:58.506Z,23.97
2022-12-19T10:16:01.545Z,24.03
2022-12-19T10:18:41.553Z,24.90
2022-12-19T10:21:36.969Z,24.33
2022-12-19T10:24:31.718Z,20.43
2022-12-19T10:27:24.229Z,22.27
2022-12-19T10:29:51.619Z,23.67
2022-12-19T10:32:40.343Z,22.90
2022-12-19T10:35:15.977Z,23.57
2022-12-19T10:38:09.074Z,22.40
2022-12-19T10:40:44.085Z,22.47
2022-12-19T10:43:22.954Z,22.20
2022-12-19T10:45:59.470Z,24.37
2022-12-19T10:48:30.582Z,24.03
2022-12-19T10:51:06.899Z,24.23
2022-12-19T10:53:34.781Z,21.77
2022-12-19T10:56:10.199Z,24.60
2022-12-19T10:58:37.871Z,22.17
2022-12-19T11:01:15.501Z,21.07
2022-12-19T11:03:46.327Z,22.43
2022-12-19T11:07:04.676Z,21.43
2022-12-19T11:09:39.309Z,22.07
2022-12-19T11:15:21.804Z,23.38
2022-12-19T11:21:27.050Z,22.87
2022-12-19T11:29:17.148Z,22.50
2022-12-19T11:29:18.418Z,21.87
2022-12-19T11:30:35.539Z,22.87
2022-12-19T11:30:38.648Z,23.73
2022-12-19T11:32:42.067Z,23.40
2022-12-19T11:35:36.542Z,19.08
2022-12-19T11:38:06.106Z,22.40
2022-12-19T11:40:49.268Z,25.00
2022-12-19T11:43:48.277Z,22.93
2022-12-19T11:46:34.404Z,23.37
2022-12-19T11:52:04.033Z,25.17
2022-12-19T11:54:37.668Z,22.67
2022-12-19T11:57:05.116Z,22.60
2022-12-19T11:59:35.440Z,25.33
2022-12-19T12:02:05.852Z,22.13
2022-12-19T12:04:42.816Z,21.97
2022-12-19T12:14:12.080Z,21.43
2022-12-19T12:18:50.073Z,24.90
2022-12-19T12:29:48.715Z,23.90
2022-12-19T12:31:39.144Z,23.27
2022-12-19T12:32:05.780Z,21.65
2022-12-19T12:35:46.563Z,24.67
2022-12-19T12:38:27.304Z,24.93
2022-12-19T12:41:10.104Z,24.80
2022-12-19T12:44:03.690Z,23.57
2022-12-19T12:46:34.782Z,22.60
2022-12-19T12:49:04.184Z,22.77
2022-12-19T12:51:35.170Z,22.03
2022-12-19T12:54:07.992Z,24.00
2022-12-19T12:56:35.917Z,23.67
2022-12-19T12:59:19.140Z,24.30
2022-12-19T13:01:50.992Z,24.27
2022-12-19T13:04:21.376Z,22.23
2022-12-19T13:06:51.862Z,24.50
2022-12-19T13:09:24.954Z,22.67
2022-12-19T13:12:42.253Z,23.97
2022-12-19T13:15:22.539Z,23.93
2022-12-19T13:17:50.258Z,23.07
2022-12-19T13:20:17.506Z,22.10
2022-12-19T13:22:46.079Z,22.97
2022-12-19T13:25:37.103Z,23.47
2022-12-19T13:28:04.276Z,22.37
2022-12-19T13:30:32.726Z,23.27
2022-12-19T13:33:20.029Z,23.47
2022-12-19T13:39:27.053Z,22.90
2022-12-19T13:40:02.200Z,23.33
2022-12-19T13:41:51.084Z,24.60
2022-12-19T13:44:20.199Z,23.70
2022-12-19T13:46:47.885Z,20.30
2022-12-19T13:49:18.994Z,25.67
2022-12-19T13:51:52.457Z,23.70
2022-12-19T13:54:32.112Z,22.83
2022-12-19T13:57:00.615Z,22.20
2022-12-19T13:59:35.084Z,22.80
2022-12-19T14:02:16.014Z,23.97
2022-12-19T14:04:43.999Z,22.87
2022-12-19T14:07:42.173Z,22.73
2022-12-19T14:11:40.285Z,23.93
2022-12-19T14:14:00.503Z,23.47
2022-12-19T14:16:20.401Z,23.33
2022-12-19T14:19:03.656Z,22.63
2022-12-19T14:22:04.209Z,24.40
2022-12-19T14:24:20.870Z,25.27
2022-12-19T14:28:18.708Z,27.10
2022-12-19T14:30:26.803Z,25.33
2022-12-19T14:33:46.718Z,23.80
2022-12-19T14:36:07.090Z,24.13
2022-12-19T14:39:27.649Z,18.73
2022-12-19T14:41:45.844Z,24.17
2022-12-19T14:53:51.675Z,24.60
2022-12-19T14:54:02.164Z,24.40
2022-12-19T14:54:03.656Z,25.07
2022-12-19T14:54:22.927Z,25.23
2022-12-19T14:56:13.690Z,26.33
2022-12-19T14:58:55.668Z,26.23
2022-12-19T15:01:30.535Z,24.50
2022-12-19T15:04:48.011Z,25.63
2022-12-19T15:07:07.429Z,25.97
2022-12-19T15:14:52.402Z,23.80
2022-12-19T15:15:46.369Z,25.57
2022-12-19T15:21:04.073Z,25.97
2022-12-19T15:23:31.789Z,24.87
2022-12-19T15:26:06.173Z,25.50
2022-12-19T15:28:40.831Z,23.27
2022-12-19T15:31:35.092Z,24.80
2022-12-19T15:34:34.938Z,25.10
2022-12-19T15:37:04.461Z,26.30
2022-12-19T15:39:32.169Z,24.83
2022-12-19T15:41:59.800Z,25.83
2022-12-19T15:44:37.936Z,26.77
2022-12-19T15:47:07.381Z,23.07
2022-12-19T15:49:35.276Z,25.23
2022-12-19T15:52:03.013Z,27.67
2022-12-19T15:57:35.282Z,27.27
2022-12-19T16:00:07.515Z,25.50
2022-12-19T16:03:13.352Z,28.33
2022-12-19T16:05:23.637Z,30.20
2022-12-19T16:07:51.446Z,27.10
2022-12-19T16:10:18.836Z,25.57
2022-12-19T16:12:51.175Z,27.27
2022-12-19T16:15:26.219Z,26.03
2022-12-19T16:17:53.985Z,25.73
2022-12-19T16:20:23.558Z,26.77
2022-12-19T16:22:51.146Z,27.80
2022-12-19T16:25:18.853Z,26.70
2022-12-19T16:27:50.364Z,26.97
2022-12-19T16:30:22.901Z,26.90
2022-12-19T16:32:50.552Z,28.30
2022-12-19T16:35:34.357Z,29.80
2022-12-19T16:38:07.962Z,27.57
2022-12-19T16:40:35.291Z,26.27
2022-12-19T16:43:10.668Z,26.93
2022-12-19T16:45:38.282Z,25.90
2022-12-19T16:48:18.201Z,27.80
2022-12-19T16:50:45.931Z,27.27
2022-12-19T16:53:13.341Z,26.33
2022-12-19T16:55:40.898Z,25.60
2022-12-19T16:58:16.163Z,26.03
2022-12-19T17:00:43.645Z,28.13
2022-12-19T17:03:33.526Z,26.37
2022-12-19T17:06:01.070Z,27.77
2022-12-19T17:08:28.720Z,29.20
2022-12-19T17:10:56.056Z,28.57
2022-12-19T17:13:23.588Z,29.17
2022-12-19T17:15:56.301Z,26.67
2022-12-19T17:18:30.032Z,25.40
2022-12-19T17:20:57.717Z,27.87
2022-12-19T17:23:25.211Z,26.93
2022-12-19T17:25:54.497Z,23.67
2022-12-19T17:28:22.221Z,28.17
2022-12-19T17:30:54.608Z,25.80
2022-12-19T17:33:22.319Z,24.30
2022-12-19T17:35:49.657Z,24.87
2022-12-19T17:38:17.167Z,26.20
2022-12-19T17:40:44.891Z,27.77
2022-12-19T17:43:12.437Z,26.47
2022-12-19T17:45:40.044Z,25.90
2022-12-19T17:48:14.616Z,27.30
2022-12-19T17:50:41.978Z,25.13
2022-12-19T17:53:12.948Z,27.13
2022-12-19T17:55:40.443Z,29.73
2022-12-19T17:58:09.674Z,26.37
2022-12-19T18:00:37.459Z,26.17
2022-12-19T18:03:15.636Z,26.47
2022-12-19T18:05:43.151Z,26.43
2022-12-19T18:08:21.649Z,27.43
2022-12-19T18:10:49.006Z,27.23
2022-12-19T18:13:16.633Z,26.73
2022-12-19T18:15:44.017Z,26.27
2022-12-19T18:18:20.493Z,29.10
2022-12-19T18:23:20.567Z,27.43
2022-12-19T18:25:48.195Z,24.90
2022-12-19T18:28:16.024Z,25.63
2022-12-19T18:30:44.158Z,24.77
2022-12-19T18:33:16.642Z,26.77
2022-12-19T18:35:47.495Z,26.50
2022-12-19T18:38:22.313Z,25.43
2022-12-19T18:40:51.827Z,26.57
2022-12-19T18:43:19.628Z,23.33
2022-12-19T18:45:48.508Z,25.37
2022-12-19T18:48:27.015Z,25.83
2022-12-19T18:50:55.060Z,26.17
2022-12-19T18:53:26.481Z,24.53
2022-12-19T18:55:57.572Z,26.23
2022-12-19T18:58:25.266Z,25.43
2022-12-19T19:00:58.877Z,25.27
2022-12-19T19:03:31.890Z,28.13
2022-12-19T19:05:59.363Z,29.93
2022-12-19T19:08:28.666Z,25.30
2022-12-19T19:10:56.574Z,25.87
2022-12-19T19:13:25.434Z,27.77
2022-12-19T19:16:01.529Z,27.50
2022-12-19T19:18:30.848Z,28.73
2022-12-19T19:21:01.324Z,26.03
2022-12-19T19:23:32.374Z,25.67
2022-12-19T19:25:59.985Z,26.17
2022-12-19T19:28:27.346Z,26.30
2022-12-19T19:30:54.778Z,27.77
2022-12-19T19:33:28.407Z,27.87
2022-12-19T19:35:57.084Z,24.97
2022-12-19T19:38:24.747Z,24.17
2022-12-19T19:40:52.068Z,27.67
2022-12-19T19:43:19.456Z,25.23
2022-12-19T19:45:47.176Z,28.17
2022-12-19T19:48:14.705Z,27.97
2022-12-19T19:50:42.156Z,27.50
2022-12-19T19:53:09.772Z,27.80
2022-12-19T19:55:37.210Z,28.53
2022-12-19T19:58:05.245Z,30.50
2022-12-19T20:00:32.952Z,31.10
2022-12-19T20:03:06.242Z,28.83
2022-12-19T20:05:34.170Z,28.47
2022-12-19T20:08:01.766Z,29.40
2022-12-19T20:10:29.137Z,31.30
2022-12-19T20:12:56.534Z,30.00
2022-12-19T20:15:24.197Z,29.40
2022-12-19T20:17:52.932Z,30.03
2022-12-19T20:20:20.313Z,29.90
2022-12-19T20:22:48.051Z,31.40
2022-12-19T20:25:15.461Z,30.13
2022-12-19T20:27:42.856Z,30.90
2022-12-19T20:30:10.884Z,28.07
2022-12-19T20:32:38.228Z,29.07
2022-12-19T20:35:12.409Z,31.13
2022-12-19T20:37:42.488Z,30.33
2022-12-19T20:40:10.401Z,28.53
2022-12-19T20:42:37.715Z,30.97
2022-12-19T20:45:05.746Z,32.57
2022-12-19T20:47:33.324Z,29.57
2022-12-19T20:50:00.672Z,28.70
2022-12-19T20:52:28.363Z,29.17
2022-12-19T20:54:55.773Z,30.00
2022-12-19T20:57:23.294Z,29.67
2022-12-19T20:59:50.991Z,32.53
2022-12-19T21:02:18.418Z,29.70
2022-12-19T21:04:45.881Z,31.07
2022-12-19T21:07:13.492Z,29.57
2022-12-19T21:09:44.823Z,31.40
2022-12-19T21:12:12.399Z,30.47
2022-12-19T21:14:40.051Z,30.67
2022-12-19T21:17:07.548Z,30.20
2022-12-19T21:19:34.908Z,29.27
2022-12-19T21:22:02.720Z,30.67
2022-12-19T21:24:30.289Z,31.77
2022-12-19T21:26:58.321Z,31.30
2022-12-19T21:29:26.188Z,29.47
2022-12-19T21:31:53.587Z,31.53
2022-12-19T21:34:20.909Z,30.90
2022-12-19T21:36:48.508Z,31.23
2022-12-19T21:39:16.021Z,30.93
2022-12-19T21:41:43.368Z,32.30
2022-12-19T21:44:11.456Z,31.53
2022-12-19T21:46:38.941Z,34.60
2022-12-19T21:49:08.383Z,31.60
2022-12-19T21:51:35.998Z,31.00
2022-12-19T21:54:04.091Z,28.80
2022-12-19T21:56:34.250Z,30.10
2022-12-19T21:59:06.415Z,31.23
2022-12-19T22:01:34.164Z,30.37
2022-12-19T22:04:09.055Z,30.23
2022-12-19T22:06:39.634Z,32.70
2022-12-19T22:09:08.426Z,29.93
2022-12-19T22:11:35.917Z,30.47
2022-12-19T22:14:05.100Z,30.40
2022-12-19T22:16:33.204Z,31.67
2022-12-19T22:19:00.732Z,31.57
2022-12-19T22:21:28.110Z,29.83
2022-12-19T22:23:59.276Z,31.37
2022-12-19T22:26:27.328Z,31.53
2022-12-19T22:28:55.391Z,30.50
2022-12-19T22:31:23.688Z,30.03
2022-12-19T22:33:55.337Z,29.47
2022-12-19T22:36:28.037Z,29.17
2022-12-19T22:38:56.882Z,29.77
2022-12-19T22:41:24.605Z,31.07
2022-12-19T22:43:52.380Z,30.83
2022-12-19T22:46:20.720Z,30.50
2022-12-19T22:48:48.869Z,29.60
2022-12-19T22:51:17.020Z,30.23
2022-12-19T22:53:44.429Z,30.03
2022-12-19T22:56:14.405Z,31.33
2022-12-19T22:58:43.113Z,29.90
2022-12-19T23:01:23.573Z,30.73
2022-12-19T23:03:52.564Z,32.67
2022-12-19T23:06:20.129Z,31.97
2022-12-19T23:08:47.613Z,30.17
2022-12-19T23:11:17.095Z,32.70
2022-12-19T23:13:45.110Z,31.90
2022-12-19T23:16:13.277Z,31.63
2022-12-19T23:18:41.001Z,31.03
2022-12-19T23:21:13.829Z,31.17
2022-12-19T23:23:42.659Z,29.23
2022-12-19T23:26:15.741Z,31.80
2022-12-19T23:28:44.289Z,31.77
2022-12-19T23:31:13.064Z,31.80
2022-12-19T23:33:40.652Z,30.40
2022-12-19T23:36:08.717Z,32.43
2022-12-19T23:38:36.077Z,30.37
2022-12-19T23:41:04.751Z,32.40
2022-12-19T23:43:33.215Z,30.57
2022-12-19T23:46:05.549Z,31.07
2022-12-19T23:48:33.354Z,28.70
2022-12-19T23:51:01.770Z,31.40
2022-12-19T23:53:29.310Z,29.73
2022-12-19T23:55:56.982Z,30.63
2022-12-19T23:58:25.100Z,31.23
